Time;durP1;ratioP1;P1;durP2;ratioP2;P2;SDS_P1;SDS_P2;PMS_P1;PMS_P2;Temp;Humidity;BMP_temperature;BMP_pressure;BME280_temperature;BME280_humidity;BME280_pressure;Samples;Min_cycle;Max_cycle;Signal;HPM_P1;HPM_P2
2023/07/26 00:01:20;;;;;;;10.43;8.70;;;;;;;;;;5155424;27;20243;-63
2023/07/26 00:03:46;;;;;;;10.23;9.27;;;;;;;;;;5153932;27;20241;-63
2023/07/26 00:06:12;;;;;;;9.40;8.60;;;;;;;;;;5151795;27;20476;-63
2023/07/26 00:08:39;;;;;;;8.95;8.15;;;;;;;;;;5151904;27;20202;-63
2023/07/26 00:11:06;;;;;;;9.57;8.43;;;;;;;;;;5154551;27;20219;-63
2023/07/26 00:13:34;;;;;;;9.57;8.70;;;;;;;;;;5155000;27;20228;-63
2023/07/26 00:16:00;;;;;;;9.93;9.02;;;;;;;;;;5152267;27;20198;-63
2023/07/26 00:18:26;;;;;;;9.95;9.00;;;;;;;;;;5151961;27;20222;-63
2023/07/26 00:20:52;;;;;;;10.00;9.10;;;;;;;;;;5153591;27;20502;-63
2023/07/26 00:23:19;;;;;;;10.75;8.88;;;;;;;;;;5155008;27;20529;-63
2023/07/26 00:25:45;;;;;;;9.95;9.05;;;;;;;;;;5154173;27;20527;-63
2023/07/26 00:28:13;;;;;;;11.32;9.45;;;;;;;;;;5151786;27;20316;-64
2023/07/26 00:30:39;;;;;;;9.05;8.35;;;;;;;;;;5151714;27;20198;-63
2023/07/26 00:33:05;;;;;;;11.00;9.52;;;;;;;;;;5143060;27;20197;-63
2023/07/26 00:35:35;;;;;;;10.30;9.23;;;;;;;;;;5151430;27;20198;-63
2023/07/26 00:38:01;;;;;;;10.75;9.63;;;;;;;;;;5154527;27;20256;-63
2023/07/26 00:40:27;;;;;;;9.35;8.55;;;;;;;;;;5154890;27;20529;-64
2023/07/26 00:42:54;;;;;;;12.55;9.50;;;;;;;;;;5152927;27;20197;-64
2023/07/26 00:45:21;;;;;;;10.45;9.32;;;;;;;;;;5151603;27;20244;-64
2023/07/26 00:47:48;;;;;;;9.50;8.68;;;;;;;;;;5152600;27;20198;-63
2023/07/26 00:50:14;;;;;;;10.02;9.20;;;;;;;;;;5155173;27;20201;-63
2023/07/26 00:52:40;;;;;;;9.68;8.80;;;;;;;;;;5155301;27;20205;-63
2023/07/26 00:55:07;;;;;;;10.85;9.23;;;;;;;;;;5143465;27;20196;-63
2023/07/26 00:57:33;;;;;;;11.73;9.60;;;;;;;;;;5151625;27;20266;-64
2023/07/26 01:00:00;;;;;;;10.20;9.40;;;;;;;;;;5154194;27;20528;-63
2023/07/26 01:02:27;;;;;;;10.85;9.27;;;;;;;;;;5154837;27;20198;-63
2023/07/26 01:04:54;;;;;;;10.15;9.20;;;;;;;;;;5153083;27;20213;-63
2023/07/26 01:07:24;;;;;;;11.57;8.68;;;;;;;;;;5151327;27;20205;-63
2023/07/26 01:09:52;;;;;;;9.60;8.60;;;;;;;;;;5152442;27;20268;-63
2023/07/26 01:12:20;;;;;;;10.68;9.60;;;;;;;;;;5154820;27;20281;-63
2023/07/26 01:14:48;;;;;;;13.07;10.05;;;;;;;;;;5154906;27;20247;-63
2023/07/26 01:17:14;;;;;;;10.68;9.68;;;;;;;;;;5154887;27;20194;-64
2023/07/26 01:19:42;;;;;;;10.77;9.77;;;;;;;;;;5154236;27;20198;-64
2023/07/26 01:22:10;;;;;;;10.63;9.63;;;;;;;;;;5156140;27;20208;-64
2023/07/26 01:24:36;;;;;;;14.15;11.07;;;;;;;;;;5158385;27;20214;-63
2023/07/26 01:27:02;;;;;;;11.32;10.07;;;;;;;;;;5155472;27;20218;-63
2023/07/26 01:29:29;;;;;;;10.65;9.82;;;;;;;;;;5154883;27;20259;-63
2023/07/26 01:31:55;;;;;;;11.30;9.68;;;;;;;;;;5156440;27;20205;-64
2023/07/26 01:34:22;;;;;;;10.98;9.90;;;;;;;;;;5158501;27;20409;-64
2023/07/26 01:36:49;;;;;;;10.57;9.57;;;;;;;;;;5156159;27;20228;-64
2023/07/26 01:39:17;;;;;;;11.50;10.43;;;;;;;;;;5158368;27;20410;-64
2023/07/26 01:41:43;;;;;;;10.60;9.60;;;;;;;;;;5157786;27;20442;-64
2023/07/26 01:44:10;;;;;;;10.90;9.75;;;;;;;;;;5146382;27;20385;-63
2023/07/26 01:46:36;;;;;;;11.07;9.93;;;;;;;;;;5154602;27;20204;-63
2023/07/26 01:49:02;;;;;;;11.52;10.32;;;;;;;;;;5157200;27;20206;-64
2023/07/26 01:51:28;;;;;;;13.00;10.73;;;;;;;;;;5158042;27;20213;-64
2023/07/26 01:53:55;;;;;;;12.43;11.25;;;;;;;;;;5156356;27;20186;-64
2023/07/26 01:56:23;;;;;;;12.88;11.57;;;;;;;;;;5154305;27;20514;-64
2023/07/26 01:58:49;;;;;;;13.02;11.80;;;;;;;;;;5154766;27;20318;-64
2023/07/26 02:01:15;;;;;;;12.70;9.55;;;;;;;;;;5157727;27;20204;-64
2023/07/26 02:03:41;;;;;;;10.13;9.13;;;;;;;;;;5157576;27;20424;-63
2023/07/26 02:06:08;;;;;;;10.18;9.20;;;;;;;;;;5154407;27;20202;-63
2023/07/26 02:08:34;;;;;;;7.13;6.45;;;;;;;;;;5154082;27;20205;-63
2023/07/26 02:11:00;;;;;;;10.52;6.18;;;;;;;;;;5155960;27;20221;-63
2023/07/26 02:13:28;;;;;;;6.07;5.40;;;;;;;;;;5157505;27;20211;-63
2023/07/26 02:15:54;;;;;;;5.63;5.22;;;;;;;;;;5157665;27;20540;-63
2023/07/26 02:18:22;;;;;;;6.47;5.32;;;;;;;;;;5157534;27;20401;-64
2023/07/26 02:20:49;;;;;;;7.10;5.25;;;;;;;;;;5156923;27;20273;-63
2023/07/26 02:23:15;;;;;;;5.43;5.03;;;;;;;;;;5153548;27;20194;-63
2023/07/26 02:25:41;;;;;;;6.43;5.13;;;;;;;;;;5153535;27;20210;-63
2023/07/26 02:28:07;;;;;;;6.68;5.20;;;;;;;;;;5156754;27;20571;-63
2023/07/26 02:30:35;;;;;;;5.53;5.03;;;;;;;;;;5157544;27;20201;-64
2023/07/26 02:33:01;;;;;;;4.90;4.38;;;;;;;;;;5154306;27;20206;-63
2023/07/26 02:35:28;;;;;;;4.78;3.95;;;;;;;;;;5153512;27;20190;-63
2023/07/26 02:37:54;;;;;;;6.28;4.63;;;;;;;;;;5154461;27;20201;-63
2023/07/26 02:40:21;;;;;;;4.93;4.53;;;;;;;;;;5156851;27;20295;-63
2023/07/26 02:42:47;;;;;;;5.18;4.70;;;;;;;;;;5156632;27;20198;-63
2023/07/26 02:45:13;;;;;;;4.90;4.40;;;;;;;;;;5153437;27;20228;-63
2023/07/26 02:47:41;;;;;;;5.82;4.80;;;;;;;;;;5153398;27;20199;-63
2023/07/26 02:50:12;;;;;;;8.73;5.00;;;;;;;;;;5156373;27;20213;-63
2023/07/26 02:52:38;;;;;;;5.00;4.55;;;;;;;;;;5156229;27;20272;-63
2023/07/26 02:55:05;;;;;;;6.63;4.63;;;;;;;;;;5154374;27;20194;-63
2023/07/26 02:57:31;;;;;;;4.60;4.30;;;;;;;;;;5153252;27;20529;-63
2023/07/26 02:59:58;;;;;;;5.18;4.63;;;;;;;;;;5154261;27;20406;-63
2023/07/26 03:02:24;;;;;;;5.40;4.60;;;;;;;;;;5156328;27;20238;-63
2023/07/26 03:04:52;;;;;;;5.03;4.63;;;;;;;;;;5155968;27;20214;-63
2023/07/26 03:07:18;;;;;;;5.60;5.00;;;;;;;;;;5152864;27;20198;-63
2023/07/26 03:09:44;;;;;;;5.72;4.13;;;;;;;;;;5153039;27;20255;-63
2023/07/26 03:12:10;;;;;;;5.03;4.63;;;;;;;;;;5155790;27;20201;-63
2023/07/26 03:14:40;;;;;;;5.70;5.07;;;;;;;;;;5156408;27;20216;-63
2023/07/26 03:17:07;;;;;;;6.82;5.70;;;;;;;;;;5153690;27;20198;-63
2023/07/26 03:19:33;;;;;;;8.63;6.05;;;;;;;;;;5152605;27;20213;-63
2023/07/26 03:22:00;;;;;;;6.90;5.63;;;;;;;;;;5153979;27;20205;-63
2023/07/26 03:24:27;;;;;;;9.02;5.70;;;;;;;;;;5156367;27;20217;-63
2023/07/26 03:26:53;;;;;;;6.43;5.88;;;;;;;;;;5155668;27;20202;-63
2023/07/26 03:29:19;;;;;;;6.22;5.68;;;;;;;;;;5152893;27;20201;-63
2023/07/26 03:31:45;;;;;;;6.05;5.55;;;;;;;;;;5152227;27;20202;-63
2023/07/26 03:34:12;;;;;;;7.30;5.13;;;;;;;;;;5155389;27;20190;-63
2023/07/26 03:36:38;;;;;;;9.52;5.72;;;;;;;;;;5156090;27;20198;-63
2023/07/26 03:39:06;;;;;;;6.22;5.68;;;;;;;;;;5153899;27;20492;-63
2023/07/26 03:41:32;;;;;;;6.03;5.50;;;;;;;;;;5152132;27;20199;-63
2023/07/26 03:43:58;;;;;;;6.75;6.03;;;;;;;;;;5153071;27;20218;-63
2023/07/26 03:46:25;;;;;;;6.65;6.07;;;;;;;;;;5154866;27;20217;-64
2023/07/26 03:48:51;;;;;;;8.60;5.88;;;;;;;;;;5155541;27;20201;-64
2023/07/26 03:51:17;;;;;;;7.90;5.57;;;;;;;;;;5152249;27;20200;-63
2023/07/26 03:53:43;;;;;;;6.47;5.90;;;;;;;;;;5152118;27;20202;-63
2023/07/26 03:56:11;;;;;;;7.28;6.57;;;;;;;;;;5154804;27;20220;-63
2023/07/26 03:58:37;;;;;;;10.18;6.28;;;;;;;;;;5155701;27;20574;-63
2023/07/26 04:01:03;;;;;;;8.40;6.55;;;;;;;;;;5153738;27;20390;-63
2023/07/26 04:03:30;;;;;;;8.68;7.07;;;;;;;;;;5151793;27;20229;-63
2023/07/26 04:05:56;;;;;;;7.13;6.43;;;;;;;;;;5152538;27;20222;-63
2023/07/26 04:08:22;;;;;;;7.43;6.60;;;;;;;;;;5155624;27;20269;-63
2023/07/26 04:10:48;;;;;;;7.80;7.00;;;;;;;;;;5155598;27;20378;-63
2023/07/26 04:13:16;;;;;;;8.70;6.55;;;;;;;;;;5151952;27;20195;-63
2023/07/26 04:15:42;;;;;;;6.57;6.13;;;;;;;;;;5151863;27;20201;-63
2023/07/26 04:18:09;;;;;;;13.15;8.10;;;;;;;;;;5160296;27;20214;-63
2023/07/26 04:20:35;;;;;;;9.50;7.13;;;;;;;;;;5152050;27;20440;-64
2023/07/26 04:23:01;;;;;;;9.38;7.55;;;;;;;;;;5152671;27;20202;-63
2023/07/26 04:25:27;;;;;;;7.90;7.25;;;;;;;;;;5155216;27;20277;-63
2023/07/26 04:27:54;;;;;;;7.85;7.07;;;;;;;;;;5154968;27;20217;-63
2023/07/26 04:30:21;;;;;;;8.30;7.32;;;;;;;;;;5151916;27;20201;-62
2023/07/26 04:32:47;;;;;;;8.20;7.40;;;;;;;;;;5151641;27;20209;-64
2023/07/26 04:35:14;;;;;;;10.50;7.85;;;;;;;;;;5154589;27;20209;-63
2023/07/26 04:37:41;;;;;;;11.52;7.25;;;;;;;;;;5155200;27;20206;-64
2023/07/26 04:40:08;;;;;;;9.70;7.15;;;;;;;;;;5152999;27;20409;-64
2023/07/26 04:42:34;;;;;;;7.50;6.82;;;;;;;;;;5151630;27;20202;-64
2023/07/26 04:45:01;;;;;;;9.85;7.28;;;;;;;;;;5152539;27;20248;-64
2023/07/26 04:47:28;;;;;;;7.70;7.03;;;;;;;;;;5155278;27;20193;-64
2023/07/26 04:49:54;;;;;;;7.82;6.93;;;;;;;;;;5154947;27;20217;-63
2023/07/26 04:52:21;;;;;;;8.18;7.43;;;;;;;;;;5151763;27;20195;-62
2023/07/26 04:54:47;;;;;;;7.75;6.35;;;;;;;;;;5151741;27;20206;-63
2023/07/26 04:57:13;;;;;;;7.60;6.90;;;;;;;;;;5155967;27;20206;-63
2023/07/26 04:59:39;;;;;;;7.78;7.05;;;;;;;;;;5159124;27;20242;-63
2023/07/26 05:02:06;;;;;;;7.10;6.53;;;;;;;;;;5157169;27;20497;-63
2023/07/26 05:04:33;;;;;;;7.30;6.43;;;;;;;;;;5155398;27;20589;-63
2023/07/26 05:07:00;;;;;;;10.07;6.65;;;;;;;;;;5155878;27;20198;-63
2023/07/26 05:09:26;;;;;;;7.32;6.63;;;;;;;;;;5158706;27;20201;-63
2023/07/26 05:11:52;;;;;;;7.75;7.13;;;;;;;;;;5158781;27;20395;-63
2023/07/26 05:14:20;;;;;;;8.25;6.65;;;;;;;;;;5155534;27;20423;-63
2023/07/26 05:16:46;;;;;;;7.38;6.72;;;;;;;;;;5155481;27;20226;-63
2023/07/26 05:19:13;;;;;;;6.13;5.53;;;;;;;;;;5157511;27;20271;-63
2023/07/26 05:21:40;;;;;;;5.78;5.28;;;;;;;;;;5158286;27;20438;-63
2023/07/26 05:24:06;;;;;;;5.60;4.43;;;;;;;;;;5156915;27;20245;-63
2023/07/26 05:26:33;;;;;;;5.03;4.63;;;;;;;;;;5155060;27;20414;-63
2023/07/26 05:28:59;;;;;;;5.18;4.78;;;;;;;;;;5155009;27;20219;-63
2023/07/26 05:31:25;;;;;;;4.25;3.83;;;;;;;;;;5158496;27;20275;-63
2023/07/26 05:33:52;;;;;;;6.18;4.13;;;;;;;;;;5158349;27;20217;-63
2023/07/26 05:36:18;;;;;;;6.28;4.60;;;;;;;;;;5155194;27;20199;-64
2023/07/26 05:38:46;;;;;;;8.65;4.78;;;;;;;;;;5154888;27;20199;-63
2023/07/26 05:41:12;;;;;;;4.63;4.20;;;;;;;;;;5156872;27;20198;-63
2023/07/26 05:43:38;;;;;;;4.60;4.20;;;;;;;;;;5158306;27;20204;-63
2023/07/26 05:46:06;;;;;;;5.35;4.75;;;;;;;;;;5157037;27;20214;-63
2023/07/26 05:48:32;;;;;;;4.97;4.53;;;;;;;;;;5154648;27;20198;-62
2023/07/26 05:50:58;;;;;;;5.03;4.55;;;;;;;;;;5154357;27;20205;-62
2023/07/26 05:53:25;;;;;;;9.80;4.93;;;;;;;;;;5158239;27;20554;-63
2023/07/26 05:55:52;;;;;;;5.82;4.82;;;;;;;;;;5158278;27;20397;-62
2023/07/26 05:58:18;;;;;;;4.85;4.22;;;;;;;;;;5154883;27;20373;-62
2023/07/26 06:00:45;;;;;;;5.32;4.90;;;;;;;;;;5154416;27;20206;-62
2023/07/26 06:03:11;;;;;;;5.82;4.53;;;;;;;;;;5155824;27;20198;-64
2023/07/26 06:05:37;;;;;;;6.15;5.07;;;;;;;;;;5157704;27;20241;-63
2023/07/26 06:08:04;;;;;;;5.15;4.75;;;;;;;;;;5156097;27;20396;-63
2023/07/26 06:10:30;;;;;;;8.85;5.22;;;;;;;;;;5154202;27;20198;-63
2023/07/26 06:12:58;;;;;;;8.05;4.85;;;;;;;;;;5153984;27;20207;-63
2023/07/26 06:15:24;;;;;;;6.07;4.20;;;;;;;;;;5145522;27;20508;-63
2023/07/26 06:17:50;;;;;;;5.72;4.55;;;;;;;;;;5154518;27;20202;-63
2023/07/26 06:20:16;;;;;;;5.85;4.72;;;;;;;;;;5156683;27;20219;-63
2023/07/26 06:22:43;;;;;;;6.72;4.13;;;;;;;;;;5157471;27;20212;-63
2023/07/26 06:25:09;;;;;;;4.93;4.45;;;;;;;;;;5156014;27;20206;-64
2023/07/26 06:27:35;;;;;;;8.65;4.43;;;;;;;;;;5153853;27;20294;-64
2023/07/26 06:30:03;;;;;;;5.68;4.50;;;;;;;;;;5154051;27;20395;-64
2023/07/26 06:32:29;;;;;;;4.93;4.03;;;;;;;;;;5156986;27;20193;-63
2023/07/26 06:34:57;;;;;;;3.83;3.53;;;;;;;;;;5156908;27;20200;-63
2023/07/26 06:37:23;;;;;;;4.90;3.85;;;;;;;;;;5154051;27;20195;-63
2023/07/26 06:39:49;;;;;;;4.05;3.75;;;;;;;;;;5153698;27;20432;-63
2023/07/26 06:42:16;;;;;;;4.30;3.90;;;;;;;;;;5155362;27;20393;-59
2023/07/26 06:44:42;;;;;;;3.58;3.47;;;;;;;;;;5156959;27;20197;-56
2023/07/26 06:47:10;;;;;;;4.13;3.50;;;;;;;;;;5136047;27;20398;-57
2023/07/26 06:49:36;;;;;;;4.00;3.72;;;;;;;;;;5150655;27;20214;-58
2023/07/26 06:52:02;;;;;;;3.50;3.20;;;;;;;;;;5146357;27;20203;-57
2023/07/26 06:54:28;;;;;;;3.75;3.38;;;;;;;;;;5137953;27;20218;-57
2023/07/26 06:56:55;;;;;;;3.65;3.35;;;;;;;;;;5140306;27;20202;-56
2023/07/26 06:59:21;;;;;;;4.22;3.00;;;;;;;;;;5137608;27;20229;-58
2023/07/26 07:01:50;;;;;;;4.65;3.30;;;;;;;;;;5142425;27;20221;-56
2023/07/26 07:04:18;;;;;;;5.50;2.95;;;;;;;;;;5147481;27;20202;-56
2023/07/26 07:06:44;;;;;;;3.95;3.33;;;;;;;;;;5144741;27;20429;-57
2023/07/26 07:09:10;;;;;;;3.95;2.90;;;;;;;;;;5139229;27;20455;-58
2023/07/26 07:11:37;;;;;;;3.83;3.60;;;;;;;;;;5142941;27;20415;-59
2023/07/26 07:14:03;;;;;;;5.63;3.40;;;;;;;;;;5146061;27;20210;-60
2023/07/26 07:16:29;;;;;;;5.13;3.90;;;;;;;;;;5142866;27;20205;-59
2023/07/26 07:18:56;;;;;;;4.88;3.17;;;;;;;;;;5150482;27;20525;-60
2023/07/26 07:21:23;;;;;;;4.53;3.05;;;;;;;;;;5147156;27;20209;-60
2023/07/26 07:23:50;;;;;;;5.30;3.10;;;;;;;;;;5138478;27;20214;-60
2023/07/26 07:26:17;;;;;;;3.35;3.03;;;;;;;;;;5147922;27;20229;-60
2023/07/26 07:28:43;;;;;;;6.70;3.45;;;;;;;;;;5144274;27;20423;-59
2023/07/26 07:31:09;;;;;;;4.55;2.85;;;;;;;;;;5147628;27;20214;-59
2023/07/26 07:33:36;;;;;;;4.93;2.90;;;;;;;;;;5146963;27;20213;-60
2023/07/26 07:36:04;;;;;;;2.92;2.60;;;;;;;;;;5138146;27;20206;-59
2023/07/26 07:38:32;;;;;;;3.90;3.10;;;;;;;;;;5140439;27;20233;-57
2023/07/26 07:40:58;;;;;;;5.05;3.03;;;;;;;;;;5148435;27;20214;-57
2023/07/26 07:43:25;;;;;;;6.57;3.40;;;;;;;;;;5141505;27;20201;-56
2023/07/26 07:45:51;;;;;;;5.65;3.00;;;;;;;;;;5149542;27;20232;-56
2023/07/26 07:48:17;;;;;;;2.97;2.78;;;;;;;;;;5140443;27;20210;-57
2023/07/26 07:50:44;;;;;;;4.13;2.80;;;;;;;;;;5138531;27;20211;-56
2023/07/26 07:53:10;;;;;;;3.70;3.40;;;;;;;;;;5146654;27;20403;-57
2023/07/26 07:55:39;;;;;;;7.18;3.47;;;;;;;;;;5140643;27;20210;-55
2023/07/26 07:58:06;;;;;;;5.88;3.42;;;;;;;;;;5138230;27;20210;-55
2023/07/26 08:00:32;;;;;;;6.18;3.35;;;;;;;;;;5137398;27;20526;-58
2023/07/26 08:02:58;;;;;;;5.72;3.00;;;;;;;;;;5135792;27;20210;-58
2023/07/26 08:05:25;;;;;;;6.00;3.47;;;;;;;;;;5129333;27;20245;-57
2023/07/26 08:07:52;;;;;;;4.50;3.38;;;;;;;;;;5132767;27;20244;-56
2023/07/26 08:10:18;;;;;;;5.72;3.53;;;;;;;;;;5139927;27;20537;-58
2023/07/26 08:12:46;;;;;;;3.28;2.95;;;;;;;;;;5132897;27;20236;-56
2023/07/26 08:15:12;;;;;;;5.95;3.53;;;;;;;;;;5131184;27;20262;-56
2023/07/26 08:17:41;;;;;;;3.40;3.20;;;;;;;;;;5124588;27;20214;-56
2023/07/26 08:20:08;;;;;;;5.82;3.78;;;;;;;;;;5122993;27;20211;-56
2023/07/26 08:22:35;;;;;;;4.22;3.20;;;;;;;;;;5132124;27;20210;-57
2023/07/26 08:25:01;;;;;;;5.45;3.30;;;;;;;;;;5139556;27;20210;-58
2023/07/26 08:27:27;;;;;;;4.57;2.95;;;;;;;;;;5134047;27;20711;-56
2023/07/26 08:29:55;;;;;;;5.43;3.38;;;;;;;;;;5126879;27;20207;-56
2023/07/26 08:32:21;;;;;;;4.00;3.28;;;;;;;;;;5141221;27;20228;-56
2023/07/26 08:34:47;;;;;;;3.13;2.83;;;;;;;;;;5138313;27;20459;-59
2023/07/26 08:37:14;;;;;;;3.42;2.75;;;;;;;;;;5138677;27;20381;-56
2023/07/26 08:39:40;;;;;;;3.75;2.60;;;;;;;;;;5134219;27;20206;-56
2023/07/26 08:42:07;;;;;;;3.47;2.17;;;;;;;;;;5130532;27;20213;-58
2023/07/26 08:44:34;;;;;;;2.75;2.22;;;;;;;;;;5133308;27;20210;-58
2023/07/26 08:47:04;;;;;;;5.07;2.10;;;;;;;;;;5134708;27;20564;-58
2023/07/26 08:49:30;;;;;;;2.33;1.50;;;;;;;;;;5142925;27;20433;-56
2023/07/26 08:51:58;;;;;;;1.92;1.30;;;;;;;;;;5134838;27;20248;-57
2023/07/26 08:54:24;;;;;;;2.92;1.48;;;;;;;;;;5137034;27;20217;-57
2023/07/26 08:56:51;;;;;;;1.95;1.50;;;;;;;;;;5145727;27;20202;-57
2023/07/26 08:59:17;;;;;;;1.08;0.93;;;;;;;;;;5141714;27;20206;-58
2023/07/26 09:01:44;;;;;;;2.08;0.80;;;;;;;;;;5146166;27;20251;-58
2023/07/26 09:04:11;;;;;;;1.45;0.90;;;;;;;;;;5146562;27;20206;-55
2023/07/26 09:06:39;;;;;;;0.90;0.90;;;;;;;;;;5144002;27;20232;-57
2023/07/26 09:09:05;;;;;;;1.63;0.88;;;;;;;;;;5139245;27;20384;-58
2023/07/26 09:11:31;;;;;;;4.32;0.98;;;;;;;;;;5142913;27;20206;-58
2023/07/26 09:13:58;;;;;;;0.93;0.90;;;;;;;;;;5145517;27;20232;-57
2023/07/26 09:16:27;;;;;;;0.98;0.90;;;;;;;;;;5136081;27;20202;-57
2023/07/26 09:18:57;;;;;;;2.72;0.93;;;;;;;;;;5146296;27;20213;-58
2023/07/26 09:21:26;;;;;;;1.00;1.00;;;;;;;;;;5142182;27;20206;-58
2023/07/26 09:23:53;;;;;;;1.00;1.00;;;;;;;;;;5146685;27;20251;-56
2023/07/26 09:26:30;;;;;;;1.85;0.98;;;;;;;;;;5144222;27;20230;-58
2023/07/26 09:28:56;;;;;;;1.08;1.08;;;;;;;;;;5146032;27;20225;-59
2023/07/26 09:31:29;;;;;;;0.60;0.60;;;;;;;;;;5131769;27;20206;-59
2023/07/26 09:33:56;;;;;;;0.98;0.57;;;;;;;;;;5140525;27;20210;-57
2023/07/26 09:36:23;;;;;;;0.45;0.45;;;;;;;;;;5135159;27;20271;-59
2023/07/26 09:38:50;;;;;;;2.53;0.52;;;;;;;;;;5141060;27;20210;-58
2023/07/26 09:41:23;;;;;;;0.40;0.40;;;;;;;;;;5143367;27;20247;-56
2023/07/26 09:43:50;;;;;;;0.40;0.40;;;;;;;;;;5143992;27;20537;-60
2023/07/26 09:46:17;;;;;;;0.77;0.70;;;;;;;;;;5143258;27;20553;-59
2023/07/26 09:48:56;;;;;;;0.40;0.40;;;;;;;;;;5142877;27;20274;-58
2023/07/26 09:51:24;;;;;;;0.50;0.50;;;;;;;;;;5131949;27;20532;-57
2023/07/26 09:53:52;;;;;;;0.60;0.60;;;;;;;;;;5132199;27;20380;-56
2023/07/26 09:56:18;;;;;;;0.60;0.60;;;;;;;;;;5138106;27;20202;-57
2023/07/26 09:58:47;;;;;;;1.65;0.68;;;;;;;;;;5133650;27;20218;-58
2023/07/26 10:01:15;;;;;;;0.60;0.60;;;;;;;;;;5137815;27;20240;-58
2023/07/26 10:03:42;;;;;;;0.50;0.50;;;;;;;;;;5134716;27;20244;-58
2023/07/26 10:06:08;;;;;;;0.50;0.50;;;;;;;;;;5134466;27;20229;-58
2023/07/26 10:08:35;;;;;;;0.70;0.70;;;;;;;;;;5132674;27;20207;-58
2023/07/26 10:11:03;;;;;;;0.60;0.60;;;;;;;;;;5133689;27;20206;-58
2023/07/26 10:13:32;;;;;;;2.55;0.98;;;;;;;;;;5135468;27;20210;-58
2023/07/26 10:15:59;;;;;;;2.28;0.82;;;;;;;;;;5134609;27;20249;-56
2023/07/26 10:18:26;;;;;;;0.60;0.60;;;;;;;;;;5140683;27;20431;-58
2023/07/26 10:20:53;;;;;;;2.15;0.80;;;;;;;;;;5133127;27;20222;-58
2023/07/26 10:23:19;;;;;;;0.82;0.82;;;;;;;;;;5141616;27;20470;-58
2023/07/26 10:25:46;;;;;;;0.95;0.95;;;;;;;;;;5134243;27;20221;-58
2023/07/26 10:28:14;;;;;;;0.63;0.63;;;;;;;;;;5141785;27;20226;-56
2023/07/26 10:30:41;;;;;;;0.85;0.70;;;;;;;;;;5140908;27;20252;-58
2023/07/26 10:33:11;;;;;;;0.80;0.80;;;;;;;;;;5140674;27;20210;-58
2023/07/26 10:35:37;;;;;;;0.80;0.80;;;;;;;;;;5130596;27;20215;-58
2023/07/26 10:38:04;;;;;;;0.95;0.82;;;;;;;;;;5130229;27;20203;-56
2023/07/26 10:40:34;;;;;;;1.88;0.80;;;;;;;;;;5134456;27;20214;-56
2023/07/26 10:43:00;;;;;;;2.80;0.90;;;;;;;;;;5141692;27;20213;-56
2023/07/26 10:45:43;;;;;;;2.58;0.95;;;;;;;;;;5140241;27;20408;-59
2023/07/26 10:48:13;;;;;;;0.80;0.80;;;;;;;;;;5132620;27;20476;-59
2023/07/26 10:50:40;;;;;;;0.82;0.82;;;;;;;;;;5132516;27;20601;-53
2023/07/26 10:53:24;;;;;;;1.23;0.65;;;;;;;;;;5139103;27;20214;-56
2023/07/26 10:55:51;;;;;;;1.65;0.88;;;;;;;;;;5130380;27;20510;-56
2023/07/26 10:58:17;;;;;;;2.95;1.02;;;;;;;;;;5129007;27;20249;-56
2023/07/26 11:00:46;;;;;;;1.17;1.05;;;;;;;;;;5130121;27;20241;-56
2023/07/26 11:03:12;;;;;;;1.00;0.93;;;;;;;;;;5125729;27;20218;-57
2023/07/26 11:05:39;;;;;;;1.33;0.90;;;;;;;;;;5141374;27;20213;-56
2023/07/26 11:08:06;;;;;;;2.10;1.10;;;;;;;;;;5138136;27;20226;-57
2023/07/26 11:10:33;;;;;;;1.70;1.20;;;;;;;;;;5131973;27;20256;-55
2023/07/26 11:13:06;;;;;;;4.55;1.00;;;;;;;;;;5132519;27;20251;-55
2023/07/26 11:15:33;;;;;;;2.80;0.90;;;;;;;;;;5139608;27;20247;-56
2023/07/26 11:18:01;;;;;;;1.00;1.00;;;;;;;;;;5135463;27;20210;-56
2023/07/26 11:20:28;;;;;;;1.27;1.17;;;;;;;;;;5137857;27;20225;-56
2023/07/26 11:22:54;;;;;;;1.25;0.85;;;;;;;;;;5141263;27;20206;-57
2023/07/26 11:25:20;;;;;;;5.90;0.70;;;;;;;;;;5140887;27;20206;-56
2023/07/26 11:27:47;;;;;;;1.13;1.02;;;;;;;;;;5133573;27;20226;-55
2023/07/26 11:30:14;;;;;;;0.80;0.80;;;;;;;;;;5141525;27;20206;-57
2023/07/26 11:32:43;;;;;;;2.53;0.88;;;;;;;;;;5127776;27;20412;-57
2023/07/26 11:35:10;;;;;;;1.00;1.00;;;;;;;;;;5135048;27;20214;-57
2023/07/26 11:37:36;;;;;;;2.38;0.95;;;;;;;;;;5141173;27;20206;-55
2023/07/26 11:40:04;;;;;;;2.50;1.15;;;;;;;;;;5137679;27;20210;-56
2023/07/26 11:42:31;;;;;;;0.90;0.90;;;;;;;;;;5136406;27;20220;-57
2023/07/26 11:44:58;;;;;;;1.05;0.73;;;;;;;;;;5143040;27;20206;-57
2023/07/26 11:47:24;;;;;;;1.00;0.90;;;;;;;;;;5141289;27;20226;-57
2023/07/26 11:49:50;;;;;;;1.70;1.17;;;;;;;;;;5148983;27;20206;-58
2023/07/26 11:52:18;;;;;;;1.50;1.13;;;;;;;;;;5143445;27;20522;-58
2023/07/26 11:54:54;;;;;;;2.88;1.00;;;;;;;;;;5143611;27;20378;-56
2023/07/26 11:57:21;;;;;;;1.17;1.15;;;;;;;;;;5141431;27;20476;-57
2023/07/26 11:59:47;;;;;;;1.00;0.90;;;;;;;;;;5139348;27;20210;-58
2023/07/26 12:02:13;;;;;;;1.27;1.27;;;;;;;;;;5142870;27;20205;-58
2023/07/26 12:04:40;;;;;;;1.48;1.33;;;;;;;;;;5137715;27;20215;-58
2023/07/26 12:07:09;;;;;;;1.55;1.45;;;;;;;;;;5141454;27;20263;-57
2023/07/26 12:09:45;;;;;;;1.25;1.10;;;;;;;;;;5138946;27;20202;-57
2023/07/26 12:12:12;;;;;;;3.50;1.42;;;;;;;;;;5144743;27;20212;-57
2023/07/26 12:14:38;;;;;;;1.60;1.50;;;;;;;;;;5142888;27;20213;-57
2023/07/26 12:17:12;;;;;;;3.42;1.60;;;;;;;;;;5145374;27;20244;-55
2023/07/26 12:19:44;;;;;;;1.42;1.42;;;;;;;;;;5140085;27;20199;-57
2023/07/26 12:22:10;;;;;;;1.52;1.42;;;;;;;;;;5147058;27;20407;-57
2023/07/26 12:24:51;;;;;;;1.85;1.75;;;;;;;;;;5145933;27;20254;-55
2023/07/26 12:27:17;;;;;;;1.50;1.40;;;;;;;;;;5139689;27;20244;-55
2023/07/26 12:29:43;;;;;;;2.17;1.40;;;;;;;;;;5145587;27;20227;-56
2023/07/26 12:32:13;;;;;;;1.60;1.50;;;;;;;;;;5144450;27;20210;-56
2023/07/26 12:34:42;;;;;;;1.50;1.23;;;;;;;;;;5141790;27;20289;-57
2023/07/26 12:37:08;;;;;;;2.95;1.80;;;;;;;;;;5137910;27;20269;-55
2023/07/26 12:39:36;;;;;;;1.48;1.48;;;;;;;;;;5138192;27;20205;-56
2023/07/26 12:42:05;;;;;;;1.58;1.58;;;;;;;;;;5136454;27;20247;-57
2023/07/26 12:44:32;;;;;;;1.52;1.30;;;;;;;;;;5146830;27;20240;-57
2023/07/26 12:46:59;;;;;;;1.80;1.70;;;;;;;;;;5142230;27;20214;-58
2023/07/26 12:49:25;;;;;;;1.80;1.70;;;;;;;;;;5145112;27;20202;-57
2023/07/26 12:51:51;;;;;;;1.30;1.30;;;;;;;;;;5148480;27;20206;-57
2023/07/26 12:54:18;;;;;;;3.13;1.70;;;;;;;;;;5144413;27;20528;-55
2023/07/26 12:56:44;;;;;;;1.65;1.52;;;;;;;;;;5139216;27;20560;-56
2023/07/26 12:59:12;;;;;;;3.83;1.65;;;;;;;;;;5137620;27;20210;-55
2023/07/26 13:01:38;;;;;;;1.65;1.52;;;;;;;;;;5146311;27;20214;-57
2023/07/26 13:04:05;;;;;;;1.35;1.30;;;;;;;;;;5142488;27;20214;-57
2023/07/26 13:06:31;;;;;;;1.60;1.50;;;;;;;;;;5143460;27;20214;-57
2023/07/26 13:08:57;;;;;;;1.63;1.52;;;;;;;;;;5139701;27;20226;-57
2023/07/26 13:11:24;;;;;;;1.85;1.50;;;;;;;;;;5141638;27;20206;-55
2023/07/26 13:13:50;;;;;;;1.98;1.75;;;;;;;;;;5148694;27;20206;-56
2023/07/26 13:16:20;;;;;;;3.58;1.85;;;;;;;;;;5139555;27;20211;-57
2023/07/26 13:18:46;;;;;;;2.83;1.55;;;;;;;;;;5142600;27;20202;-56
2023/07/26 13:21:12;;;;;;;2.75;2.10;;;;;;;;;;5140371;27;20293;-55
2023/07/26 13:23:39;;;;;;;1.98;1.88;;;;;;;;;;5148682;27;20211;-56
2023/07/26 13:26:05;;;;;;;2.00;1.90;;;;;;;;;;5146159;27;20294;-56
2023/07/26 13:28:31;;;;;;;2.35;2.25;;;;;;;;;;5143626;27;20252;-55
2023/07/26 13:30:58;;;;;;;2.08;1.95;;;;;;;;;;5152367;27;20212;-57
2023/07/26 13:33:25;;;;;;;2.55;2.30;;;;;;;;;;5152270;27;20209;-58
2023/07/26 13:35:52;;;;;;;2.55;2.08;;;;;;;;;;5139996;27;20213;-57
2023/07/26 13:38:18;;;;;;;1.95;1.85;;;;;;;;;;5146622;27;20546;-57
2023/07/26 13:40:44;;;;;;;2.47;2.20;;;;;;;;;;5151416;27;20217;-55
2023/07/26 13:43:10;;;;;;;2.10;1.98;;;;;;;;;;5145145;27;20203;-55
2023/07/26 13:45:37;;;;;;;3.53;2.10;;;;;;;;;;5142860;27;20271;-54
2023/07/26 13:48:03;;;;;;;2.78;2.20;;;;;;;;;;5147663;27;20224;-55
2023/07/26 13:50:31;;;;;;;2.45;2.28;;;;;;;;;;5143094;27;20549;-54
2023/07/26 13:52:57;;;;;;;3.53;2.03;;;;;;;;;;5149367;27;20206;-56
2023/07/26 13:55:23;;;;;;;2.25;2.13;;;;;;;;;;5148468;27;20206;-57
2023/07/26 13:57:49;;;;;;;2.42;2.28;;;;;;;;;;5142155;27;20208;-56
2023/07/26 14:00:16;;;;;;;3.58;2.53;;;;;;;;;;5140614;27;20217;-56
2023/07/26 14:02:42;;;;;;;2.00;1.90;;;;;;;;;;5147278;27;20535;-54
2023/07/26 14:05:08;;;;;;;1.70;1.50;;;;;;;;;;5141789;27;20222;-56
2023/07/26 14:07:36;;;;;;;2.60;1.80;;;;;;;;;;5142066;27;20230;-55
2023/07/26 14:10:02;;;;;;;2.33;2.17;;;;;;;;;;5139248;27;20383;-55
2023/07/26 14:12:29;;;;;;;2.88;2.10;;;;;;;;;;5142275;27;20210;-57
2023/07/26 14:14:55;;;;;;;2.78;2.58;;;;;;;;;;5146311;27;20202;-60
2023/07/26 14:17:21;;;;;;;1.88;1.77;;;;;;;;;;5139367;27;20203;-55
2023/07/26 14:19:48;;;;;;;2.25;2.00;;;;;;;;;;5150540;27;20213;-54
2023/07/26 14:22:14;;;;;;;2.35;2.15;;;;;;;;;;5150255;27;20225;-57
2023/07/26 14:24:42;;;;;;;2.67;2.47;;;;;;;;;;5148466;27;20217;-57
2023/07/26 14:27:08;;;;;;;3.17;2.15;;;;;;;;;;5144706;27;20225;-57
2023/07/26 14:29:34;;;;;;;2.40;2.13;;;;;;;;;;5149598;27;20217;-56
2023/07/26 14:32:01;;;;;;;2.10;2.00;;;;;;;;;;5147707;27;20244;-57
2023/07/26 14:34:27;;;;;;;2.30;2.13;;;;;;;;;;5147095;27;20394;-56
2023/07/26 14:36:53;;;;;;;1.95;1.85;;;;;;;;;;5143394;27;20209;-57
2023/07/26 14:39:20;;;;;;;2.90;2.13;;;;;;;;;;5151362;27;20440;-62